Oxnard, California
Current Conditions -  °F | °C
As of 4:51 PM on Thursday 27 Nov 2014 (Local Time) from KOXR Reporting Station
Clear Clear  
Wind Chill: 19°   Ceiling: Unl
Heat Index: 19°   Visibility: 10mi
Dew Point: 15°   Wind: 7mph
Humidity: 76%   Direction: 260°W
Pressure: 30.01"   Gusts: NA
Location:  34.2°N, 119.18°W
Report Text: KOXR 280051Z 26006KT 10SM CLR 19/15 A3001 RMK AO2 SLP160 T01940150
Loading
Personal Weather Stations






























Interactive Weather Map New forecast layout! Learn more

10-Day Weather Forecast

Advertisements
Track Severe Weather on mobile